createdAt,value
2019-04-10T00:00:45.832Z,91.17
2019-04-10T00:01:44.688Z,89.75
2019-04-10T00:02:45.732Z,89.75
2019-04-10T00:03:44.549Z,89.56
2019-04-10T00:04:45.306Z,90.22
2019-04-10T00:05:44.611Z,90.61
2019-04-10T00:06:44.531Z,90.70
2019-04-10T00:07:44.512Z,90.80
2019-04-10T00:08:44.504Z,90.70
2019-04-10T00:09:45.522Z,89.75
2019-04-10T00:10:44.518Z,90.89
2019-04-10T00:11:45.124Z,91.37
2019-04-10T00:12:45.403Z,90.13
2019-04-10T00:13:44.932Z,90.80
2019-04-10T00:14:44.987Z,90.42
2019-04-10T00:15:44.500Z,90.42
2019-04-10T00:16:44.604Z,90.80
2019-04-10T00:17:45.066Z,90.70
2019-04-10T00:18:44.465Z,91.46
2019-04-10T00:19:45.577Z,90.89
2019-04-10T00:20:44.861Z,89.84
2019-04-10T00:21:45.223Z,89.61
2019-04-10T00:22:44.534Z,90.18
2019-04-10T00:23:44.470Z,90.03
2019-04-10T00:24:44.436Z,90.28
2019-04-10T00:25:45.351Z,90.84
2019-04-10T00:26:44.440Z,90.66
2019-04-10T00:27:45.111Z,92.70
2019-04-10T00:28:44.518Z,91.61
2019-04-10T00:29:44.688Z,92.41
2019-04-10T00:30:45.072Z,90.80
2019-04-10T00:31:44.554Z,92.94
2019-04-10T00:32:44.402Z,91.42
2019-04-10T00:33:45.107Z,90.75
2019-04-10T00:34:45.550Z,89.89
2019-04-10T00:35:44.395Z,92.18
2019-04-10T00:36:44.398Z,91.03
2019-04-10T00:37:44.948Z,92.36
2019-04-10T00:38:44.376Z,91.32
2019-04-10T00:39:44.535Z,91.13
2019-04-10T00:40:44.367Z,92.27
2019-04-10T00:41:44.376Z,91.13
2019-04-10T00:42:45.144Z,90.28
2019-04-10T00:43:44.365Z,93.13
2019-04-10T00:44:44.382Z,93.89
2019-04-10T00:45:44.350Z,94.74
2019-04-10T00:46:44.438Z,94.46
2019-04-10T00:47:44.350Z,93.23
2019-04-10T00:48:44.330Z,91.70
2019-04-10T00:49:44.358Z,91.22
2019-04-10T00:50:44.691Z,91.42
2019-04-10T00:51:44.322Z,93.23
2019-04-10T00:52:44.330Z,93.60
2019-04-10T00:53:45.463Z,92.08
2019-04-10T00:54:44.305Z,90.84
2019-04-10T00:55:44.306Z,93.04
2019-04-10T00:56:45.273Z,94.18
2019-04-10T00:57:44.294Z,93.89
2019-04-10T00:58:44.286Z,92.08
2019-04-10T00:59:44.280Z,92.94
2019-04-10T01:00:45.347Z,93.89
2019-04-10T01:01:44.276Z,95.60
2019-04-10T01:02:44.969Z,94.37
2019-04-10T01:03:45.047Z,93.79
2019-04-10T01:04:44.642Z,92.46
2019-04-10T01:05:44.257Z,91.61
2019-04-10T01:06:44.265Z,93.79
2019-04-10T01:07:45.617Z,93.89
2019-04-10T01:08:44.731Z,92.36
2019-04-10T01:09:44.236Z,93.13
2019-04-10T01:10:44.316Z,93.79
2019-04-10T01:11:44.230Z,94.93
2019-04-10T01:12:44.221Z,94.37
2019-04-10T01:13:45.247Z,92.36
2019-04-10T01:14:44.216Z,93.04
2019-04-10T01:15:44.769Z,93.13
2019-04-10T01:16:44.226Z,92.94
2019-04-10T01:17:44.219Z,94.56
2019-04-10T01:18:44.199Z,93.13
2019-04-10T01:19:44.186Z,94.65
2019-04-10T01:20:44.183Z,94.42
2019-04-10T01:21:44.331Z,92.94
2019-04-10T01:22:44.191Z,95.89
2019-04-10T01:23:44.943Z,95.03
2019-04-10T01:24:44.163Z,94.18
2019-04-10T01:25:44.187Z,94.93
2019-04-10T01:26:44.173Z,93.04
2019-04-10T01:27:44.525Z,93.41
2019-04-10T01:28:45.075Z,95.60
2019-04-10T01:29:44.350Z,95.51
2019-04-10T01:30:44.446Z,94.65
2019-04-10T01:31:44.130Z,94.37
2019-04-10T01:32:44.154Z,93.65
2019-04-10T01:33:45.910Z,94.93
2019-04-10T01:34:44.139Z,94.46
2019-04-10T01:35:44.596Z,95.41
2019-04-10T01:36:44.115Z,94.22
2019-04-10T01:37:51.214Z,94.65
2019-04-10T01:38:44.206Z,94.22
2019-04-10T01:39:44.114Z,93.84
2019-04-10T01:40:44.109Z,93.08
2019-04-10T01:41:44.088Z,92.80
2019-04-10T01:42:44.496Z,92.99
2019-04-10T01:43:44.074Z,93.94
2019-04-10T01:44:44.855Z,93.84
2019-04-10T01:45:44.065Z,96.12
2019-04-10T01:46:44.057Z,96.50
2019-04-10T01:47:44.084Z,95.84
2019-04-10T01:48:44.109Z,94.98
2019-04-10T01:49:44.064Z,93.75
2019-04-10T01:50:44.449Z,92.80
2019-04-10T01:51:44.034Z,94.79
2019-04-10T01:52:44.920Z,95.84
2019-04-10T01:53:44.246Z,96.98
2019-04-10T01:54:45.510Z,95.08
2019-04-10T01:55:44.089Z,94.60
2019-04-10T01:56:44.028Z,96.31
2019-04-10T01:57:44.275Z,94.70
2019-04-10T01:58:44.211Z,95.36
2019-04-10T01:59:44.011Z,94.79
2019-04-10T02:00:43.997Z,95.75
2019-04-10T02:01:44.918Z,96.50
2019-04-10T02:02:44.185Z,94.42
2019-04-10T02:03:44.442Z,94.60
2019-04-10T02:04:44.027Z,92.80
2019-04-10T02:05:44.948Z,93.75
2019-04-10T02:06:44.022Z,93.75
2019-04-10T02:07:44.491Z,95.94
2019-04-10T02:08:43.958Z,95.08
2019-04-10T02:09:43.951Z,96.50
2019-04-10T02:10:44.655Z,95.75
2019-04-10T02:11:43.965Z,97.45
2019-04-10T02:12:45.071Z,97.08
2019-04-10T02:13:44.131Z,95.94
2019-04-10T02:14:44.678Z,95.36
2019-04-10T02:15:44.025Z,96.31
2019-04-10T02:16:43.922Z,96.60
2019-04-10T02:17:44.511Z,95.36
2019-04-10T02:18:43.915Z,95.75
2019-04-10T02:19:44.096Z,96.50
2019-04-10T02:20:43.923Z,96.41
2019-04-10T02:21:44.287Z,97.08
2019-04-10T02:22:43.899Z,97.45
2019-04-10T02:23:44.758Z,96.03
2019-04-10T02:24:43.875Z,94.32
2019-04-10T02:25:43.870Z,96.12
2019-04-10T02:26:44.065Z,96.60
2019-04-10T02:27:44.710Z,95.51
2019-04-10T02:28:44.972Z,95.41
2019-04-10T02:29:44.016Z,95.56
2019-04-10T02:30:43.943Z,95.51
2019-04-10T02:31:44.260Z,95.65
2019-04-10T02:32:47.663Z,95.56
2019-04-10T02:33:43.913Z,95.84
2019-04-10T02:34:46.020Z,96.31
2019-04-10T02:35:45.274Z,96.60
2019-04-10T02:36:44.532Z,96.03
2019-04-10T02:37:43.827Z,95.65
2019-04-10T02:38:59.443Z,96.26
2019-04-10T02:39:47.708Z,96.89
2019-04-10T02:40:45.436Z,95.41
2019-04-10T02:41:44.037Z,95.41
2019-04-10T02:42:45.185Z,95.79
2019-04-10T02:43:45.150Z,94.18
2019-04-10T02:44:44.091Z,94.56
2019-04-10T02:45:44.443Z,95.98
2019-04-10T02:46:45.048Z,95.89
2019-04-10T02:47:44.966Z,95.32
2019-04-10T02:48:43.744Z,96.65
2019-04-10T02:49:44.565Z,96.65
2019-04-10T02:50:44.929Z,95.89
2019-04-10T02:51:45.170Z,97.69
2019-04-10T02:52:45.715Z,97.31
2019-04-10T02:53:43.911Z,97.03
2019-04-10T02:54:43.759Z,96.17
2019-04-10T02:55:43.951Z,97.41
2019-04-10T02:56:45.546Z,97.31
2019-04-10T02:57:44.187Z,96.45
2019-04-10T02:58:44.556Z,95.41
2019-04-10T02:59:45.315Z,94.27
2019-04-10T03:00:44.272Z,96.45
2019-04-10T03:01:44.053Z,96.08
2019-04-10T03:02:45.208Z,95.32
2019-04-10T03:03:44.699Z,96.36
2019-04-10T03:04:44.525Z,97.69
2019-04-10T03:05:44.777Z,97.60
2019-04-10T03:06:45.082Z,97.50
2019-04-10T03:07:44.309Z,97.22
2019-04-10T03:09:00.740Z,97.69
2019-04-10T03:09:56.305Z,97.41
2019-04-10T03:10:49.610Z,97.12
2019-04-10T03:11:43.950Z,97.97
2019-04-10T03:12:44.220Z,97.69
2019-04-10T03:13:45.086Z,96.84
2019-04-10T03:14:45.977Z,97.22
2019-04-10T03:15:43.915Z,97.31
2019-04-10T03:16:43.805Z,96.36
2019-04-10T03:17:44.096Z,97.03
2019-04-10T03:18:43.587Z,97.12
2019-04-10T03:19:43.606Z,97.60
2019-04-10T03:20:44.680Z,98.45
2019-04-10T03:21:43.564Z,96.74
2019-04-10T03:22:43.556Z,96.17
2019-04-10T03:23:43.760Z,96.31
2019-04-10T03:24:44.391Z,95.41
2019-04-10T03:25:43.557Z,97.22
2019-04-10T03:26:43.814Z,97.31
2019-04-10T03:27:43.535Z,96.55
2019-04-10T03:28:43.528Z,96.45
2019-04-10T03:29:44.854Z,97.36
2019-04-10T03:30:44.346Z,96.31
2019-04-10T03:31:45.102Z,96.60
2019-04-10T03:32:50.271Z,97.64
2019-04-10T03:33:47.304Z,96.98
2019-04-10T03:34:46.098Z,97.36
2019-04-10T03:35:43.485Z,97.17
2019-04-10T03:36:43.509Z,97.07
2019-04-10T03:37:44.563Z,97.07
2019-04-10T03:38:55.479Z,97.45
2019-04-10T03:39:43.745Z,97.74
2019-04-10T03:40:43.727Z,97.17
2019-04-10T03:41:44.318Z,97.92
2019-04-10T03:42:43.444Z,97.17
2019-04-10T03:43:43.782Z,96.60
2019-04-10T03:44:43.429Z,97.07
2019-04-10T03:45:44.416Z,96.41
2019-04-10T03:46:43.423Z,96.79
2019-04-10T03:47:43.902Z,97.07
2019-04-10T03:48:43.417Z,97.64
2019-04-10T03:49:44.301Z,97.07
2019-04-10T03:50:43.706Z,97.36
2019-04-10T03:51:43.388Z,97.55
2019-04-10T03:52:43.393Z,97.55
2019-04-10T03:53:44.493Z,97.92
2019-04-10T03:54:43.963Z,97.55
2019-04-10T03:55:43.367Z,96.41
2019-04-10T03:56:43.569Z,96.69
2019-04-10T03:57:43.353Z,96.79
2019-04-10T03:58:43.946Z,96.31
2019-04-10T03:59:43.547Z,97.17
2019-04-10T04:00:43.337Z,97.36
2019-04-10T04:01:43.336Z,97.36
2019-04-10T04:02:44.171Z,97.17
2019-04-10T04:03:43.318Z,96.12
2019-04-10T04:04:43.894Z,96.88
2019-04-10T04:05:43.307Z,97.45
2019-04-10T04:06:43.995Z,96.74
2019-04-10T04:07:43.319Z,97.12
2019-04-10T04:08:43.693Z,96.60
2019-04-10T04:09:43.974Z,96.98
2019-04-10T04:10:43.271Z,95.36
2019-04-10T04:11:44.015Z,96.41
2019-04-10T04:12:43.261Z,97.55
2019-04-10T04:13:43.802Z,97.55
2019-04-10T04:14:44.103Z,97.36
2019-04-10T04:15:44.328Z,96.31
2019-04-10T04:16:43.631Z,98.40
2019-04-10T04:17:44.209Z,98.69
2019-04-10T04:18:43.549Z,98.31
2019-04-10T04:19:43.229Z,97.83
2019-04-10T04:20:43.422Z,97.50
2019-04-10T04:21:43.957Z,97.31
2019-04-10T04:22:43.214Z,97.41
2019-04-10T04:23:43.215Z,97.12
2019-04-10T04:24:44.042Z,97.41
2019-04-10T04:25:43.184Z,97.22
2019-04-10T04:26:43.611Z,97.50
2019-04-10T04:27:44.202Z,96.74
2019-04-10T04:28:43.999Z,96.08
2019-04-10T04:29:43.412Z,96.74
2019-04-10T04:30:43.153Z,97.31
2019-04-10T04:31:44.090Z,97.41
2019-04-10T04:32:44.092Z,96.83
2019-04-10T04:33:43.169Z,96.45
2019-04-10T04:34:43.348Z,97.69
2019-04-10T04:35:43.146Z,97.41
2019-04-10T04:36:43.160Z,97.78
2019-04-10T04:37:44.233Z,96.83
2019-04-10T04:38:43.228Z,96.74
2019-04-10T04:39:43.359Z,97.69
2019-04-10T04:40:44.162Z,97.41
2019-04-10T04:41:43.085Z,97.41
2019-04-10T04:42:43.077Z,96.74
2019-04-10T04:43:44.707Z,95.89
2019-04-10T04:44:43.174Z,96.45
2019-04-10T04:45:44.209Z,97.22
2019-04-10T04:46:43.049Z,96.64
2019-04-10T04:47:43.342Z,97.12
2019-04-10T04:48:43.347Z,97.31
2019-04-10T04:49:43.031Z,97.60
2019-04-10T04:50:43.570Z,98.92
2019-04-10T04:51:43.757Z,98.64
2019-04-10T04:52:43.521Z,97.50
2019-04-10T04:53:44.079Z,97.41
2019-04-10T04:54:43.537Z,97.22
2019-04-10T04:55:42.987Z,96.55
2019-04-10T04:56:44.159Z,96.08
2019-04-10T04:57:42.973Z,97.12
2019-04-10T04:58:43.510Z,96.64
2019-04-10T04:59:43.169Z,96.74
2019-04-10T05:00:43.162Z,97.60
2019-04-10T05:01:43.153Z,97.12
2019-04-10T05:02:43.149Z,98.26
2019-04-10T05:03:42.975Z,97.22
2019-04-10T05:04:43.810Z,97.88
2019-04-10T05:05:43.336Z,98.26
2019-04-10T05:06:43.714Z,97.50
2019-04-10T05:07:54.119Z,98.92
2019-04-10T05:08:43.182Z,98.07
2019-04-10T05:09:43.963Z,99.40
2019-04-10T05:10:42.890Z,98.73
2019-04-10T05:11:42.895Z,98.83
2019-04-10T05:12:43.626Z,97.22
2019-04-10T05:13:43.081Z,97.31
2019-04-10T05:14:43.976Z,97.41
2019-04-10T05:15:42.868Z,99.02
2019-04-10T05:16:43.655Z,98.26
2019-04-10T05:17:42.845Z,98.07
2019-04-10T05:18:43.574Z,97.97
2019-04-10T05:19:42.836Z,99.11
2019-04-10T05:20:47.263Z,98.64
2019-04-10T05:21:43.634Z,98.83
2019-04-10T05:22:43.641Z,99.30
2019-04-10T05:23:42.895Z,98.45
2019-04-10T05:24:42.802Z,98.07
2019-04-10T05:25:43.428Z,97.60
2019-04-10T05:26:42.869Z,97.69
2019-04-10T05:27:43.429Z,97.31
2019-04-10T05:28:42.777Z,99.77
2019-04-10T05:29:43.115Z,99.30
2019-04-10T05:30:43.107Z,98.45
2019-04-10T05:31:42.757Z,99.02
2019-04-10T05:32:43.726Z,99.11
2019-04-10T05:33:42.943Z,99.99
2019-04-10T05:34:43.358Z,99.02
2019-04-10T05:35:43.752Z,99.21
2019-04-10T05:36:42.724Z,98.07
2019-04-10T05:37:43.531Z,99.68
2019-04-10T05:38:42.753Z,99.21
2019-04-10T05:39:47.835Z,98.45
2019-04-10T05:40:42.706Z,98.16
2019-04-10T05:41:43.843Z,98.64
2019-04-10T05:42:42.687Z,99.68
2019-04-10T05:43:42.681Z,98.45
2019-04-10T05:44:42.687Z,99.02
2019-04-10T05:45:42.673Z,98.92
2019-04-10T05:46:43.025Z,98.64
2019-04-10T05:47:42.663Z,98.45
2019-04-10T05:48:43.810Z,97.60
2019-04-10T05:49:42.855Z,97.97
2019-04-10T05:50:52.957Z,97.88
2019-04-10T05:51:43.632Z,97.12
2019-04-10T05:52:43.020Z,97.22
2019-04-10T05:53:43.040Z,99.11
2019-04-10T05:54:43.791Z,98.45
2019-04-10T05:55:42.603Z,99.40
2019-04-10T05:56:42.801Z,99.99
2019-04-10T05:57:42.703Z,99.40
2019-04-10T05:58:42.867Z,99.99
2019-04-10T05:59:42.576Z,99.99
2019-04-10T06:00:43.054Z,99.58
2019-04-10T06:01:44.151Z,98.92
2019-04-10T06:02:43.804Z,99.40
2019-04-10T06:03:42.890Z,99.58
2019-04-10T06:04:43.316Z,99.87
2019-04-10T06:05:42.554Z,99.40
2019-04-10T06:06:42.545Z,98.83
2019-04-10T06:07:43.513Z,99.68
2019-04-10T06:08:43.497Z,99.99
2019-04-10T06:09:54.059Z,99.97
2019-04-10T06:10:43.572Z,99.99
2019-04-10T06:11:44.092Z,99.99
2019-04-10T06:12:42.728Z,99.99
2019-04-10T06:13:42.983Z,99.49
2019-04-10T06:14:42.478Z,99.58
2019-04-10T06:15:43.387Z,99.58
2019-04-10T06:16:42.693Z,98.54
2019-04-10T06:17:42.841Z,99.58
2019-04-10T06:18:43.054Z,98.92
2019-04-10T06:19:42.738Z,99.99
2019-04-10T06:20:42.438Z,99.49
2019-04-10T06:21:42.454Z,99.11
2019-04-10T06:22:43.821Z,99.40
2019-04-10T06:23:43.398Z,99.30
2019-04-10T06:24:42.566Z,99.49
2019-04-10T06:25:43.545Z,98.54
2019-04-10T06:26:43.481Z,99.11
2019-04-10T06:27:42.973Z,99.02
2019-04-10T06:28:42.388Z,99.58
2019-04-10T06:29:44.571Z,99.58
2019-04-10T06:30:42.369Z,99.68
2019-04-10T06:31:42.989Z,98.35
2019-04-10T06:32:43.217Z,98.92
2019-04-10T06:33:42.572Z,98.73
2019-04-10T06:34:42.617Z,97.69
2019-04-10T06:35:42.693Z,97.31
2019-04-10T06:36:43.725Z,97.12
2019-04-10T06:37:42.327Z,97.17
2019-04-10T06:38:43.325Z,96.74
2019-04-10T06:39:44.507Z,96.31
2019-04-10T06:40:42.306Z,97.45
2019-04-10T06:41:43.160Z,98.21
2019-04-10T06:42:47.513Z,99.16
2019-04-10T06:43:43.356Z,98.02
2019-04-10T06:44:42.293Z,97.74
2019-04-10T06:45:42.484Z,96.22
2019-04-10T06:46:42.302Z,94.70
2019-04-10T06:47:42.545Z,93.75
2019-04-10T06:48:42.477Z,93.27
2019-04-10T06:49:42.247Z,96.12
2019-04-10T06:50:43.224Z,97.27
2019-04-10T06:51:42.974Z,94.32
2019-04-10T06:52:42.986Z,95.08
2019-04-10T06:53:42.225Z,92.99
2019-04-10T06:54:42.234Z,92.94
2019-04-10T06:55:42.660Z,94.56
2019-04-10T06:56:43.043Z,92.46
2019-04-10T06:57:50.987Z,93.13
2019-04-10T06:58:42.458Z,93.79
2019-04-10T06:59:42.423Z,92.37
2019-04-10T07:00:45.585Z,92.46
2019-04-10T07:01:50.122Z,93.13
2019-04-10T07:02:42.374Z,92.46
2019-04-10T07:03:53.788Z,93.60
2019-04-10T07:04:48.318Z,90.75
2019-04-10T07:05:57.635Z,90.28
2019-04-10T07:06:52.833Z,90.28
2019-04-10T07:07:50.677Z,92.32
2019-04-10T07:08:45.461Z,91.56
2019-04-10T07:09:42.265Z,91.22
2019-04-10T07:10:52.046Z,90.04
2019-04-10T07:11:42.878Z,89.14
2019-04-10T07:12:42.114Z,89.04
2019-04-10T07:13:43.004Z,87.71
2019-04-10T07:14:45.524Z,90.75
2019-04-10T07:15:43.932Z,90.08
2019-04-10T07:16:42.272Z,89.80
2019-04-10T07:17:43.181Z,89.42
2019-04-10T07:18:45.884Z,89.51
2019-04-10T07:19:43.998Z,90.14
2019-04-10T07:20:42.203Z,92.22
2019-04-10T07:21:42.685Z,90.04
2019-04-10T07:22:46.481Z,91.47
2019-04-10T07:23:42.848Z,91.37
2019-04-10T07:24:42.574Z,91.61
2019-04-10T07:25:44.573Z,91.89
2019-04-10T07:26:45.977Z,88.42
2019-04-10T07:27:42.036Z,88.89
2019-04-10T07:28:45.680Z,86.99
2019-04-10T07:29:42.573Z,85.80
2019-04-10T07:30:42.023Z,88.46
2019-04-10T07:31:42.498Z,89.27
2019-04-10T07:32:45.681Z,87.42
2019-04-10T07:33:42.586Z,88.13
2019-04-10T07:34:42.499Z,88.79
2019-04-10T07:35:42.296Z,89.14
2019-04-10T07:36:43.562Z,89.70
2019-04-10T07:37:42.501Z,90.47
2019-04-10T07:38:41.966Z,89.14
2019-04-10T07:39:44.669Z,90.14
2019-04-10T07:40:42.909Z,91.66
2019-04-10T07:41:41.983Z,91.85
2019-04-10T07:42:43.285Z,92.89
2019-04-10T07:43:42.613Z,90.08
2019-04-10T07:44:42.138Z,91.22
2019-04-10T07:45:41.939Z,88.18
2019-04-10T07:46:42.390Z,87.90
2019-04-10T07:47:42.075Z,86.99
2019-04-10T07:48:42.119Z,88.23
2019-04-10T07:49:42.113Z,88.46
2019-04-10T07:50:44.515Z,90.28
2019-04-10T07:51:42.520Z,89.14
2019-04-10T07:52:41.902Z,89.80
2019-04-10T07:53:41.902Z,89.70
2019-04-10T07:54:44.367Z,90.61
2019-04-10T07:55:45.948Z,90.33
2019-04-10T07:56:41.892Z,91.56
2019-04-10T07:57:44.703Z,91.13
2019-04-10T07:58:41.940Z,91.42
2019-04-10T07:59:41.873Z,90.18
2019-04-10T08:00:42.911Z,89.65
2019-04-10T08:01:42.140Z,87.46
2019-04-10T08:02:42.762Z,88.04
2019-04-10T08:03:41.838Z,86.46
2019-04-10T08:04:41.823Z,86.75
2019-04-10T08:05:41.906Z,86.80
2019-04-10T08:06:42.441Z,85.56
2019-04-10T08:07:42.968Z,88.13
2019-04-10T08:08:42.605Z,90.22
2019-04-10T08:09:43.004Z,90.22
2019-04-10T08:10:43.678Z,90.61
2019-04-10T08:11:42.546Z,87.27
2019-04-10T08:12:47.718Z,85.47
2019-04-10T08:13:41.792Z,88.70
2019-04-10T08:14:42.071Z,89.42
2019-04-10T08:15:41.774Z,90.08
2019-04-10T08:16:41.770Z,90.94
2019-04-10T08:17:41.794Z,91.22
2019-04-10T08:18:41.756Z,91.70
2019-04-10T08:19:41.750Z,93.13
2019-04-10T08:20:42.519Z,92.84
2019-04-10T08:21:42.365Z,89.51
2019-04-10T08:22:42.756Z,90.32
2019-04-10T08:23:42.360Z,90.70
2019-04-10T08:24:42.678Z,89.79
2019-04-10T08:25:41.725Z,87.89
2019-04-10T08:26:41.718Z,86.51
2019-04-10T08:27:41.836Z,84.56
2019-04-10T08:28:41.719Z,85.08
2019-04-10T08:29:42.768Z,83.84
2019-04-10T08:30:41.978Z,83.74
2019-04-10T08:31:41.699Z,83.74
2019-04-10T08:32:54.127Z,84.79
2019-04-10T08:33:42.005Z,83.36
2019-04-10T08:34:42.107Z,82.45
2019-04-10T08:35:41.923Z,83.83
2019-04-10T08:36:41.671Z,80.77
2019-04-10T08:37:41.680Z,79.30
2019-04-10T08:38:42.142Z,81.46
2019-04-10T08:39:46.008Z,81.32
2019-04-10T08:40:41.651Z,83.56
2019-04-10T08:41:41.681Z,84.61
2019-04-10T08:42:45.800Z,85.28
2019-04-10T08:43:41.752Z,85.28
2019-04-10T08:44:42.453Z,88.04
2019-04-10T08:45:48.117Z,86.42
2019-04-10T08:46:41.984Z,88.46
2019-04-10T08:47:42.155Z,85.13
2019-04-10T08:48:41.621Z,83.98
2019-04-10T08:49:41.612Z,84.84
2019-04-10T08:50:41.946Z,86.27
2019-04-10T08:51:41.672Z,85.74
2019-04-10T08:52:41.603Z,83.78
2019-04-10T08:53:42.443Z,81.26
2019-04-10T08:54:42.566Z,82.73
2019-04-10T08:55:42.081Z,82.12
2019-04-10T08:56:42.756Z,79.88
2019-04-10T08:57:41.755Z,78.58
2019-04-10T08:58:41.574Z,77.62
2019-04-10T08:59:44.122Z,79.96
2019-04-10T09:00:42.747Z,76.67
2019-04-10T09:01:41.811Z,76.90
2019-04-10T09:02:42.335Z,79.19
2019-04-10T09:03:41.539Z,77.59
2019-04-10T09:04:41.736Z,81.40
2019-04-10T09:05:42.686Z,81.65
2019-04-10T09:06:41.825Z,83.07
2019-04-10T09:07:41.524Z,83.80
2019-04-10T09:08:42.178Z,83.70
2019-04-10T09:09:41.626Z,84.65
2019-04-10T09:10:42.707Z,85.28
2019-04-10T09:11:41.520Z,84.36
2019-04-10T09:12:41.496Z,86.55
2019-04-10T09:13:41.498Z,85.56
2019-04-10T09:14:41.502Z,86.18
2019-04-10T09:15:42.355Z,85.47
2019-04-10T09:16:42.674Z,88.18
2019-04-10T09:17:41.750Z,88.65
2019-04-10T09:18:41.460Z,84.56
2019-04-10T09:19:42.296Z,85.41
2019-04-10T09:20:42.703Z,85.89
2019-04-10T09:21:41.730Z,85.70
2019-04-10T09:22:57.940Z,83.70
2019-04-10T09:23:47.319Z,83.22
2019-04-10T09:24:42.436Z,83.93
2019-04-10T09:25:41.621Z,84.79
2019-04-10T09:26:41.413Z,83.74
2019-04-10T09:27:42.751Z,84.08
2019-04-10T09:28:42.428Z,83.03
2019-04-10T09:29:42.423Z,83.61
2019-04-10T09:30:41.391Z,84.65
2019-04-10T09:31:41.926Z,83.61
2019-04-10T09:32:42.396Z,84.84
2019-04-10T09:33:41.374Z,84.75
2019-04-10T09:34:42.204Z,86.55
2019-04-10T09:35:41.484Z,84.27
2019-04-10T09:36:41.751Z,84.36
2019-04-10T09:37:42.083Z,84.27
2019-04-10T09:38:41.379Z,83.80
2019-04-10T09:39:41.352Z,82.56
2019-04-10T09:40:42.482Z,82.37
2019-04-10T09:41:41.877Z,84.08
2019-04-10T09:42:41.754Z,84.84
2019-04-10T09:43:42.128Z,84.08
2019-04-10T09:44:41.310Z,85.03
2019-04-10T09:45:41.622Z,83.03
2019-04-10T09:46:41.308Z,83.13
2019-04-10T09:47:41.743Z,82.93
2019-04-10T09:48:42.136Z,86.65
2019-04-10T09:49:45.817Z,85.08
2019-04-10T09:50:41.861Z,82.21
2019-04-10T09:51:42.391Z,78.88
2019-04-10T09:52:41.278Z,80.50
2019-04-10T09:53:41.493Z,80.50
2019-04-10T09:54:42.468Z,84.75
2019-04-10T09:55:41.249Z,82.89
2019-04-10T09:56:41.979Z,82.26
2019-04-10T09:57:41.446Z,80.26
2019-04-10T09:58:41.234Z,80.68
2019-04-10T09:59:41.377Z,79.53
2019-04-10T10:00:41.223Z,78.83
2019-04-10T10:01:42.219Z,78.22
2019-04-10T10:02:41.214Z,81.30
2019-04-10T10:03:42.147Z,80.54
2019-04-10T10:04:41.766Z,77.34
2019-04-10T10:05:41.205Z,76.39
2019-04-10T10:06:41.187Z,75.91
2019-04-10T10:07:41.200Z,74.48
2019-04-10T10:09:41.200Z,76.01
2019-04-10T10:10:41.650Z,76.10
2019-04-10T10:11:41.166Z,74.92
2019-04-10T10:12:41.175Z,76.25
2019-04-10T10:13:41.503Z,79.68
2019-04-10T10:14:42.163Z,79.83
2019-04-10T10:15:41.173Z,82.03
2019-04-10T10:16:42.220Z,79.83
2019-04-10T10:17:41.292Z,81.26
2019-04-10T10:18:41.577Z,79.55
2019-04-10T10:19:41.124Z,77.36
2019-04-10T10:20:41.120Z,80.41
2019-04-10T10:21:41.111Z,80.02
2019-04-10T10:22:41.254Z,80.98
2019-04-10T10:23:43.012Z,79.93
2019-04-10T10:24:41.111Z,80.69
2019-04-10T10:25:41.526Z,78.12
2019-04-10T10:26:43.327Z,78.78
2019-04-10T10:27:41.084Z,79.02
2019-04-10T10:28:41.081Z,76.35
2019-04-10T10:29:41.925Z,77.49
2019-04-10T10:30:41.833Z,76.16
2019-04-10T10:31:41.286Z,75.91
2019-04-10T10:32:42.111Z,72.00
2019-04-10T10:33:41.746Z,73.72
2019-04-10T10:34:41.063Z,76.77
2019-04-10T10:35:41.215Z,72.09
2019-04-10T10:36:44.478Z,71.27
2019-04-10T10:37:41.102Z,74.42
2019-04-10T10:38:41.169Z,74.42
2019-04-10T10:39:41.200Z,72.86
2019-04-10T10:40:41.471Z,74.57
2019-04-10T10:41:41.023Z,77.15
2019-04-10T10:42:41.522Z,77.59
2019-04-10T10:43:41.002Z,77.87
2019-04-10T10:44:40.988Z,78.44
2019-04-10T10:45:40.991Z,76.82
2019-04-10T10:46:41.833Z,75.53
2019-04-10T10:47:41.204Z,76.67
2019-04-10T10:48:42.015Z,75.91
2019-04-10T10:49:40.998Z,73.62
2019-04-10T10:50:41.593Z,73.72
2019-04-10T10:51:40.981Z,74.48
2019-04-10T10:52:41.709Z,71.43
2019-04-10T10:53:41.146Z,70.57
2019-04-10T10:54:41.117Z,71.62
2019-04-10T10:55:41.858Z,74.01
2019-04-10T10:56:41.138Z,74.10
2019-04-10T10:57:41.564Z,72.00
2019-04-10T10:58:40.928Z,73.72
2019-04-10T10:59:41.867Z,73.72
2019-04-10T11:00:41.167Z,73.62
2019-04-10T11:01:41.852Z,76.67
2019-04-10T11:02:41.507Z,72.48
2019-04-10T11:03:40.897Z,75.53
2019-04-10T11:04:41.103Z,74.38
2019-04-10T11:05:40.896Z,71.91
2019-04-10T11:06:51.769Z,74.67
2019-04-10T11:07:40.914Z,73.14
2019-04-10T11:08:41.765Z,70.67
2019-04-10T11:09:41.916Z,70.42
2019-04-10T11:10:41.360Z,69.27
2019-04-10T11:11:41.001Z,71.94
2019-04-10T11:12:42.262Z,73.66
2019-04-10T11:13:40.963Z,68.70
2019-04-10T11:14:40.842Z,70.61
2019-04-10T11:15:45.185Z,70.22
2019-04-10T11:16:41.087Z,69.74
2019-04-10T11:17:41.855Z,70.42
2019-04-10T11:18:40.831Z,71.62
2019-04-10T11:19:41.248Z,70.51
2019-04-10T11:20:41.789Z,69.65
2019-04-10T11:21:40.822Z,69.08
2019-04-10T11:22:42.382Z,72.99
2019-04-10T11:23:42.178Z,72.80
2019-04-10T11:24:42.743Z,70.03
2019-04-10T11:25:40.810Z,70.00
2019-04-10T11:26:42.643Z,70.13
2019-04-10T11:27:42.062Z,73.66
2019-04-10T11:28:41.889Z,74.61
2019-04-10T11:29:40.789Z,73.56
2019-04-10T11:30:41.207Z,73.18
2019-04-10T11:31:41.726Z,71.31
2019-04-10T11:32:42.195Z,70.16
2019-04-10T11:33:41.234Z,70.07
2019-04-10T11:34:40.866Z,69.87
2019-04-10T11:35:41.426Z,71.50
2019-04-10T11:36:42.538Z,70.51
2019-04-10T11:37:44.754Z,69.56
2019-04-10T11:38:42.906Z,69.23
2019-04-10T11:39:43.558Z,70.47
2019-04-10T11:40:41.421Z,71.52
2019-04-10T11:41:41.359Z,71.62
2019-04-10T11:42:42.768Z,72.48
2019-04-10T11:43:41.621Z,71.43
2019-04-10T11:44:42.517Z,70.00
2019-04-10T11:45:45.451Z,70.67
2019-04-10T11:46:41.889Z,72.00
2019-04-10T11:47:40.707Z,73.62
2019-04-10T11:48:44.716Z,71.43
2019-04-10T11:49:43.377Z,70.19
2019-04-10T11:50:43.898Z,72.19
2019-04-10T11:51:41.082Z,72.96
2019-04-10T11:52:48.015Z,69.17
2019-04-10T11:53:44.475Z,68.32
2019-04-10T11:54:41.602Z,66.41
2019-04-10T11:55:46.684Z,68.03
2019-04-10T11:56:42.663Z,66.98
2019-04-10T11:57:41.972Z,69.27
2019-04-10T11:58:50.687Z,71.84
2019-04-10T11:59:41.120Z,72.03
2019-04-10T12:00:47.616Z,72.28
2019-04-10T12:01:40.629Z,72.86
2019-04-10T12:02:43.859Z,75.15
2019-04-10T12:03:45.139Z,74.48
2019-04-10T12:04:48.117Z,72.51
2019-04-10T12:05:42.020Z,74.61
2019-04-10T12:06:40.664Z,72.76
2019-04-10T12:08:23.479Z,72.48
2019-04-10T12:09:04.222Z,72.38
2019-04-10T12:11:41.545Z,74.48
2019-04-10T12:12:41.640Z,74.10
2019-04-10T12:13:40.811Z,74.38
2019-04-10T12:14:40.574Z,71.91
2019-04-10T12:15:40.717Z,75.05
2019-04-10T12:16:41.038Z,74.57
2019-04-10T12:17:40.554Z,72.19
2019-04-10T12:18:40.626Z,72.57
2019-04-10T12:19:40.580Z,74.57
2019-04-10T12:20:41.009Z,73.72
2019-04-10T12:21:40.547Z,71.23
2019-04-10T12:22:40.792Z,72.67
2019-04-10T12:23:40.954Z,74.48
2019-04-10T12:24:40.728Z,73.62
2019-04-10T12:25:40.881Z,76.01
2019-04-10T12:26:40.539Z,75.72
2019-04-10T12:27:41.155Z,74.29
2019-04-10T12:28:40.517Z,72.86
2019-04-10T12:29:40.581Z,74.67
2019-04-10T12:30:41.686Z,73.62
2019-04-10T12:31:40.485Z,72.96
2019-04-10T12:32:41.067Z,72.76
2019-04-10T12:33:40.678Z,72.28
2019-04-10T12:34:40.474Z,71.52
2019-04-10T12:35:40.491Z,72.09
2019-04-10T12:36:40.628Z,71.84
2019-04-10T12:37:41.228Z,74.23
2019-04-10T12:38:41.259Z,74.13
2019-04-10T12:39:41.232Z,76.52
2019-04-10T12:40:40.635Z,75.18
2019-04-10T12:41:41.545Z,69.11
2019-04-10T12:42:40.703Z,69.87
2019-04-10T12:43:41.073Z,71.59
2019-04-10T12:44:40.916Z,74.42
2019-04-10T12:45:40.445Z,75.09
2019-04-10T12:46:41.533Z,74.04
2019-04-10T12:47:40.414Z,75.37
2019-04-10T12:48:41.072Z,70.22
2019-04-10T12:49:41.292Z,71.41
2019-04-10T12:50:41.293Z,71.46
2019-04-10T12:51:41.481Z,71.37
2019-04-10T12:52:40.902Z,73.28
2019-04-10T12:53:40.419Z,73.18
2019-04-10T12:54:40.571Z,71.56
2019-04-10T12:55:40.374Z,72.23